sensor_id;sensor_type;location;lat;lon;timestamp;pressure;altitude;pressure_sealevel;temperature;humidity
30021;BME280;16861;52.294;7.760;2023-05-08T00:02:09;100344.09;;;14.47;54.55
30021;BME280;16861;52.294;7.760;2023-05-08T00:04:36;100344.19;;;14.45;54.47
30021;BME280;16861;52.294;7.760;2023-05-08T00:09:41;100347.75;;;14.44;54.48
30021;BME280;16861;52.294;7.760;2023-05-08T00:12:08;100345.09;;;14.44;54.58
30021;BME280;16861;52.294;7.760;2023-05-08T00:14:35;100344.19;;;14.45;54.50
30021;BME280;16861;52.294;7.760;2023-05-08T00:17:01;100348.63;;;14.45;54.52
30021;BME280;16861;52.294;7.760;2023-05-08T00:19:28;100338.03;;;14.45;54.40
30021;BME280;16861;52.294;7.760;2023-05-08T00:21:55;100347.75;;;14.44;54.25
30021;BME280;16861;52.294;7.760;2023-05-08T00:24:21;100346.91;;;14.44;54.34
30021;BME280;16861;52.294;7.760;2023-05-08T00:26:48;100340.03;;;14.41;54.46
30021;BME280;16861;52.294;7.760;2023-05-08T00:29:14;100344.56;;;14.39;54.31
30021;BME280;16861;52.294;7.760;2023-05-08T00:31:41;100348.16;;;14.38;54.56
30021;BME280;16861;52.294;7.760;2023-05-08T00:34:08;100345.59;;;14.37;54.57
30021;BME280;16861;52.294;7.760;2023-05-08T00:36:34;100344.66;;;14.38;54.53
30021;BME280;16861;52.294;7.760;2023-05-08T00:39:01;100342.88;;;14.38;54.70
30021;BME280;16861;52.294;7.760;2023-05-08T00:41:28;100346.28;;;14.40;54.70
30021;BME280;16861;52.294;7.760;2023-05-08T00:43:54;100348.94;;;14.40;54.57
30021;BME280;16861;52.294;7.760;2023-05-08T00:46:21;100347.97;;;14.41;54.60
30021;BME280;16861;52.294;7.760;2023-05-08T00:48:48;100354.97;;;14.42;54.60
30021;BME280;16861;52.294;7.760;2023-05-08T00:51:14;100350.53;;;14.43;54.36
30021;BME280;16861;52.294;7.760;2023-05-08T00:53:42;100354.88;;;14.44;54.51
30021;BME280;16861;52.294;7.760;2023-05-08T00:56:12;100347.13;;;14.41;54.71
30021;BME280;16861;52.294;7.760;2023-05-08T00:58:40;100347.97;;;14.41;54.67
30021;BME280;16861;52.294;7.760;2023-05-08T01:01:07;100354.97;;;14.42;54.38
30021;BME280;16861;52.294;7.760;2023-05-08T01:03:34;100357.63;;;14.42;54.66
30021;BME280;16861;52.294;7.760;2023-05-08T01:06:03;100353.28;;;14.41;54.67
30021;BME280;16861;52.294;7.760;2023-05-08T01:08:30;100354.22;;;14.40;54.60
30021;BME280;16861;52.294;7.760;2023-05-08T01:11:19;100348.34;;;14.35;55.22
30021;BME280;16861;52.294;7.760;2023-05-08T01:16:44;100351.94;;;14.34;55.14
30021;BME280;16861;52.294;7.760;2023-05-08T01:33:24;100349.13;;;14.23;55.01
30021;BME280;16861;52.294;7.760;2023-05-08T01:35:57;100348.19;;;14.24;55.08
30021;BME280;16861;52.294;7.760;2023-05-08T01:38:45;100351.22;;;14.17;55.42
30021;BME280;16861;52.294;7.760;2023-05-08T01:41:20;100352.94;;;14.18;55.10
30021;BME280;16861;52.294;7.760;2023-05-08T01:44:12;100352.25;;;14.15;55.56
30021;BME280;16861;52.294;7.760;2023-05-08T01:46:44;100349.50;;;14.16;55.09
30021;BME280;16861;52.294;7.760;2023-05-08T01:49:22;100342.72;;;14.12;55.49
30021;BME280;16861;52.294;7.760;2023-05-08T01:51:59;100344.63;;;14.10;55.21
30021;BME280;16861;52.294;7.760;2023-05-08T01:55:15;100343.00;;;14.07;55.17
30021;BME280;16861;52.294;7.760;2023-05-08T01:57:23;100348.41;;;14.06;54.96
30021;BME280;16861;52.294;7.760;2023-05-08T01:59:53;100345.94;;;14.03;55.08
30021;BME280;16861;52.294;7.760;2023-05-08T02:02:21;100340.72;;;14.01;55.08
30021;BME280;16861;52.294;7.760;2023-05-08T02:04:49;100347.06;;;13.99;55.26
30021;BME280;16861;52.294;7.760;2023-05-08T02:07:20;100349.06;;;13.95;55.48
30021;BME280;16861;52.294;7.760;2023-05-08T02:09:48;100357.09;;;13.93;55.48
30021;BME280;16861;52.294;7.760;2023-05-08T02:12:17;100346.69;;;13.90;55.23
30021;BME280;16861;52.294;7.760;2023-05-08T02:14:46;100359.19;;;13.88;55.42
30021;BME280;16861;52.294;7.760;2023-05-08T02:17:17;100355.75;;;13.86;55.89
30021;BME280;16861;52.294;7.760;2023-05-08T02:19:45;100366.44;;;13.85;55.45
30021;BME280;16861;52.294;7.760;2023-05-08T02:22:13;100364.75;;;13.84;55.64
30021;BME280;16861;52.294;7.760;2023-05-08T02:24:41;100371.81;;;13.83;55.57
30021;BME280;16861;52.294;7.760;2023-05-08T02:27:10;100368.25;;;13.84;55.64
30021;BME280;16861;52.294;7.760;2023-05-08T02:29:37;100374.38;;;13.85;55.49
30021;BME280;16861;52.294;7.760;2023-05-08T02:32:05;100366.53;;;13.83;55.72
30021;BME280;16861;52.294;7.760;2023-05-08T02:34:35;100361.22;;;13.83;55.59
30021;BME280;16861;52.294;7.760;2023-05-08T02:37:04;100358.50;;;13.85;55.64
30021;BME280;16861;52.294;7.760;2023-05-08T02:39:33;100363.88;;;13.83;55.71
30021;BME280;16861;52.294;7.760;2023-05-08T02:42:01;100361.16;;;13.85;55.78
30021;BME280;16861;52.294;7.760;2023-05-08T02:44:29;100362.19;;;13.82;55.91
30021;BME280;16861;52.294;7.760;2023-05-08T02:46:59;100361.44;;;13.80;55.69
30021;BME280;16861;52.294;7.760;2023-05-08T02:52:17;100359.94;;;13.76;56.39
30021;BME280;16861;52.294;7.760;2023-05-08T02:54:59;100353.94;;;13.72;56.28
30021;BME280;16861;52.294;7.760;2023-05-08T03:00:10;100344.41;;;13.70;56.42
30021;BME280;16861;52.294;7.760;2023-05-08T03:02:43;100345.28;;;13.70;56.15
30021;BME280;16861;52.294;7.760;2023-05-08T03:05:18;100341.84;;;13.68;56.68
30021;BME280;16861;52.294;7.760;2023-05-08T03:07:53;100338.47;;;13.66;56.56
30021;BME280;16861;52.294;7.760;2023-05-08T03:10:24;100336.69;;;13.66;56.33
30021;BME280;16861;52.294;7.760;2023-05-08T03:12:54;100330.53;;;13.66;55.97
30021;BME280;16861;52.294;7.760;2023-05-08T03:15:39;100330.69;;;13.63;56.42
30021;BME280;16861;52.294;7.760;2023-05-08T03:18:10;100332.50;;;13.62;56.38
30021;BME280;16861;52.294;7.760;2023-05-08T03:20:40;100331.75;;;13.60;56.07
30021;BME280;16861;52.294;7.760;2023-05-08T03:23:09;100333.66;;;13.58;56.01
30021;BME280;16861;52.294;7.760;2023-05-08T03:25:40;100335.50;;;13.56;56.30
30021;BME280;16861;52.294;7.760;2023-05-08T03:28:08;100331.19;;;13.55;56.18
30021;BME280;16861;52.294;7.760;2023-05-08T03:30:40;100328.72;;;13.52;56.55
30021;BME280;16861;52.294;7.760;2023-05-08T03:33:08;100334.84;;;13.52;56.14
30021;BME280;16861;52.294;7.760;2023-05-08T03:35:37;100330.59;;;13.50;56.10
30021;BME280;16861;52.294;7.760;2023-05-08T03:38:05;100326.28;;;13.49;56.22
30021;BME280;16861;52.294;7.760;2023-05-08T03:40:33;100330.75;;;13.47;56.13
30021;BME280;16861;52.294;7.760;2023-05-08T03:43:08;100328.09;;;13.47;56.19
30021;BME280;16861;52.294;7.760;2023-05-08T03:45:38;100334.34;;;13.46;56.63
30021;BME280;16861;52.294;7.760;2023-05-08T03:48:07;100330.84;;;13.45;56.48
30021;BME280;16861;52.294;7.760;2023-05-08T03:50:35;100329.06;;;13.46;56.46
30021;BME280;16861;52.294;7.760;2023-05-08T03:53:02;100322.06;;;13.45;56.26
30021;BME280;16861;52.294;7.760;2023-05-08T03:55:30;100330.94;;;13.43;56.36
30021;BME280;16861;52.294;7.760;2023-05-08T04:03:24;100327.81;;;13.37;57.14
30021;BME280;16861;52.294;7.760;2023-05-08T04:06:10;100323.56;;;13.34;56.94
30021;BME280;16861;52.294;7.760;2023-05-08T04:08:43;100320.81;;;13.36;56.59
30021;BME280;16861;52.294;7.760;2023-05-08T04:14:19;100332.50;;;13.32;56.88
30021;BME280;16861;52.294;7.760;2023-05-08T04:16:49;100329.03;;;13.31;56.89
30021;BME280;16861;52.294;7.760;2023-05-08T04:19:21;100336.97;;;13.31;56.84
30021;BME280;16861;52.294;7.760;2023-05-08T04:21:50;100326.41;;;13.31;56.64
30021;BME280;16861;52.294;7.760;2023-05-08T04:24:22;100329.69;;;13.35;56.36
30021;BME280;16861;52.294;7.760;2023-05-08T04:26:50;100328.00;;;13.34;56.40
30021;BME280;16861;52.294;7.760;2023-05-08T04:29:17;100336.03;;;13.32;56.49
30021;BME280;16861;52.294;7.760;2023-05-08T04:31:44;100336.13;;;13.31;56.66
30021;BME280;16861;52.294;7.760;2023-05-08T04:34:12;100337.88;;;13.30;56.75
30021;BME280;16861;52.294;7.760;2023-05-08T04:36:39;100337.06;;;13.29;56.88
30021;BME280;16861;52.294;7.760;2023-05-08T04:39:06;100336.97;;;13.31;57.12
30021;BME280;16861;52.294;7.760;2023-05-08T04:41:32;100338.66;;;13.32;57.08
30021;BME280;16861;52.294;7.760;2023-05-08T04:44:02;100340.38;;;13.33;57.34
30021;BME280;16861;52.294;7.760;2023-05-08T04:46:29;100343.66;;;13.37;57.14
30021;BME280;16861;52.294;7.760;2023-05-08T04:48:55;100347.00;;;13.40;57.35
30021;BME280;16861;52.294;7.760;2023-05-08T04:51:22;100351.25;;;13.43;57.26
30021;BME280;16861;52.294;7.760;2023-05-08T04:53:48;100351.91;;;13.47;57.25
30021;BME280;16861;52.294;7.760;2023-05-08T04:56:15;100351.78;;;13.50;57.32
30021;BME280;16861;52.294;7.760;2023-05-08T04:58:41;100362.16;;;13.53;57.22
30021;BME280;16861;52.294;7.760;2023-05-08T05:01:08;100363.66;;;13.57;57.46
30021;BME280;16861;52.294;7.760;2023-05-08T05:03:34;100372.94;;;13.64;57.42
30021;BME280;16861;52.294;7.760;2023-05-08T05:06:01;100369.09;;;13.70;57.68
30021;BME280;16861;52.294;7.760;2023-05-08T05:08:28;100380.88;;;13.79;57.78
30021;BME280;16861;52.294;7.760;2023-05-08T05:10:54;100385.66;;;13.88;57.74
30021;BME280;16861;52.294;7.760;2023-05-08T05:13:21;100393.97;;;13.97;57.84
30021;BME280;16861;52.294;7.760;2023-05-08T05:15:48;100387.34;;;14.04;57.61
30021;BME280;16861;52.294;7.760;2023-05-08T05:18:16;100380.63;;;14.13;57.66
30021;BME280;16861;52.294;7.760;2023-05-08T05:20:43;100381.09;;;14.19;57.37
30021;BME280;16861;52.294;7.760;2023-05-08T05:23:10;100384.31;;;14.25;57.16
30021;BME280;16861;52.294;7.760;2023-05-08T05:25:37;100384.13;;;14.28;57.19
30021;BME280;16861;52.294;7.760;2023-05-08T05:28:04;100385.72;;;14.30;56.95
30021;BME280;16861;52.294;7.760;2023-05-08T05:30:30;100383.00;;;14.32;56.94
30021;BME280;16861;52.294;7.760;2023-05-08T05:32:57;100381.09;;;14.34;57.01
30021;BME280;16861;52.294;7.760;2023-05-08T05:35:24;100381.84;;;14.36;57.07
30021;BME280;16861;52.294;7.760;2023-05-08T05:37:51;100384.28;;;14.39;56.96
30021;BME280;16861;52.294;7.760;2023-05-08T05:40:17;100386.84;;;14.41;56.99
30021;BME280;16861;52.294;7.760;2023-05-08T05:42:47;100386.75;;;14.42;57.14
30021;BME280;16861;52.294;7.760;2023-05-08T05:45:15;100393.56;;;14.46;56.94
30021;BME280;16861;52.294;7.760;2023-05-08T05:47:45;100389.13;;;14.47;57.37
30021;BME280;16861;52.294;7.760;2023-05-08T05:50:16;100389.75;;;14.51;57.00
30021;BME280;16861;52.294;7.760;2023-05-08T05:52:46;100389.56;;;14.54;56.97
30021;BME280;16861;52.294;7.760;2023-05-08T05:55:13;100386.72;;;14.57;56.84
30021;BME280;16861;52.294;7.760;2023-05-08T05:57:40;100390.78;;;14.63;56.88
30021;BME280;16861;52.294;7.760;2023-05-08T06:00:07;100386.13;;;14.66;56.92
30021;BME280;16861;52.294;7.760;2023-05-08T06:02:35;100389.44;;;14.70;57.02
30021;BME280;16861;52.294;7.760;2023-05-08T06:05:03;100386.41;;;14.76;56.84
30021;BME280;16861;52.294;7.760;2023-05-08T06:09:57;100381.28;;;14.88;56.71
30021;BME280;16861;52.294;7.760;2023-05-08T06:12:25;100380.03;;;14.93;56.91
30021;BME280;16861;52.294;7.760;2023-05-08T06:14:53;100384.19;;;14.97;56.85
30021;BME280;16861;52.294;7.760;2023-05-08T06:17:20;100378.47;;;15.04;56.69
30021;BME280;16861;52.294;7.760;2023-05-08T06:19:47;100375.53;;;15.08;56.19
30021;BME280;16861;52.294;7.760;2023-05-08T06:22:16;100379.53;;;15.14;56.30
30021;BME280;16861;52.294;7.760;2023-05-08T06:24:43;100380.22;;;15.18;56.28
30021;BME280;16861;52.294;7.760;2023-05-08T06:27:10;100379.16;;;15.20;56.22
30021;BME280;16861;52.294;7.760;2023-05-08T06:29:38;100372.59;;;15.26;56.14
30021;BME280;16861;52.294;7.760;2023-05-08T06:32:05;100367.19;;;15.28;56.20
30021;BME280;16861;52.294;7.760;2023-05-08T06:34:32;100363.34;;;15.32;56.23
30021;BME280;16861;52.294;7.760;2023-05-08T06:36:58;100357.75;;;15.36;56.60
30021;BME280;16861;52.294;7.760;2023-05-08T06:39:25;100357.31;;;15.43;56.53
30021;BME280;16861;52.294;7.760;2023-05-08T06:41:51;100356.81;;;15.50;56.44
30021;BME280;16861;52.294;7.760;2023-05-08T06:44:18;100352.91;;;15.56;56.40
30021;BME280;16861;52.294;7.760;2023-05-08T06:46:45;100355.97;;;15.63;56.13
30021;BME280;16861;52.294;7.760;2023-05-08T06:49:11;100357.47;;;15.67;55.92
30021;BME280;16861;52.294;7.760;2023-05-08T06:51:38;100353.66;;;15.71;55.71
30021;BME280;16861;52.294;7.760;2023-05-08T06:54:05;100352.59;;;15.74;55.73
30021;BME280;16861;52.294;7.760;2023-05-08T06:56:34;100353.22;;;15.77;55.49
30021;BME280;16861;52.294;7.760;2023-05-08T06:59:01;100363.63;;;15.81;55.46
30021;BME280;16861;52.294;7.760;2023-05-08T07:01:34;100361.69;;;15.83;55.50
30021;BME280;16861;52.294;7.760;2023-05-08T07:04:03;100360.63;;;15.85;55.50
30021;BME280;16861;52.294;7.760;2023-05-08T07:06:30;100361.41;;;15.87;55.24
30021;BME280;16861;52.294;7.760;2023-05-08T07:08:56;100356.91;;;15.88;55.32
30021;BME280;16861;52.294;7.760;2023-05-08T07:11:23;100363.81;;;15.90;55.40
30021;BME280;16861;52.294;7.760;2023-05-08T07:13:50;100369.81;;;15.94;55.77
30021;BME280;16861;52.294;7.760;2023-05-08T07:16:16;100370.31;;;15.99;55.84
30021;BME280;16861;52.294;7.760;2023-05-08T07:18:43;100374.47;;;16.04;56.11
30021;BME280;16861;52.294;7.760;2023-05-08T07:21:10;100385.31;;;16.13;56.06
30021;BME280;16861;52.294;7.760;2023-05-08T07:23:36;100387.41;;;16.21;56.13
30021;BME280;16861;52.294;7.760;2023-05-08T07:26:03;100383.38;;;16.28;56.29
30021;BME280;16861;52.294;7.760;2023-05-08T07:28:29;100390.69;;;16.38;56.50
30021;BME280;16861;52.294;7.760;2023-05-08T07:30:56;100386.28;;;16.50;56.76
30021;BME280;16861;52.294;7.760;2023-05-08T07:33:23;100383.81;;;16.60;56.77
30021;BME280;16861;52.294;7.760;2023-05-08T07:35:50;100392.59;;;16.73;56.79
30021;BME280;16861;52.294;7.760;2023-05-08T07:38:16;100388.94;;;16.87;56.82
30021;BME280;16861;52.294;7.760;2023-05-08T07:40:43;100389.72;;;17.01;56.50
30021;BME280;16861;52.294;7.760;2023-05-08T07:43:11;100390.41;;;17.16;56.79
30021;BME280;16861;52.294;7.760;2023-05-08T07:45:38;100391.91;;;17.31;56.57
30021;BME280;16861;52.294;7.760;2023-05-08T07:48:04;100387.13;;;17.48;56.17
30021;BME280;16861;52.294;7.760;2023-05-08T07:50:33;100390.44;;;17.63;56.33
30021;BME280;16861;52.294;7.760;2023-05-08T07:52:59;100392.03;;;17.77;55.88
30021;BME280;16861;52.294;7.760;2023-05-08T07:55:26;100390.81;;;17.93;56.19
30021;BME280;16861;52.294;7.760;2023-05-08T07:57:52;100400.41;;;18.07;56.02
30021;BME280;16861;52.294;7.760;2023-05-08T08:00:19;100397.41;;;18.23;56.00
30021;BME280;16861;52.294;7.760;2023-05-08T08:02:46;100393.53;;;18.39;55.52
30021;BME280;16861;52.294;7.760;2023-05-08T08:05:12;100392.28;;;18.54;55.40
30021;BME280;16861;52.294;7.760;2023-05-08T08:07:39;100389.34;;;18.69;55.85
30021;BME280;16861;52.294;7.760;2023-05-08T08:10:06;100392.47;;;18.85;55.68
30021;BME280;16861;52.294;7.760;2023-05-08T08:12:33;100389.50;;;19.00;55.66
30021;BME280;16861;52.294;7.760;2023-05-08T08:15:00;100394.44;;;19.16;55.22
30021;BME280;16861;52.294;7.760;2023-05-08T08:17:27;100387.94;;;19.30;54.64
30021;BME280;16861;52.294;7.760;2023-05-08T08:19:54;100385.22;;;19.42;54.97
30021;BME280;16861;52.294;7.760;2023-05-08T08:22:22;100392.19;;;19.54;54.40
30021;BME280;16861;52.294;7.760;2023-05-08T08:24:49;100387.75;;;19.64;54.39
30021;BME280;16861;52.294;7.760;2023-05-08T08:27:19;100384.28;;;19.74;54.10
30021;BME280;16861;52.294;7.760;2023-05-08T08:29:46;100388.84;;;19.83;53.97
30021;BME280;16861;52.294;7.760;2023-05-08T08:32:12;100386.50;;;19.90;53.91
30021;BME280;16861;52.294;7.760;2023-05-08T08:34:39;100394.81;;;19.97;53.59
30021;BME280;16861;52.294;7.760;2023-05-08T08:37:05;100393.47;;;20.02;53.56
30021;BME280;16861;52.294;7.760;2023-05-08T08:39:33;100387.72;;;20.07;53.50
30021;BME280;16861;52.294;7.760;2023-05-08T08:42:00;100389.88;;;20.13;53.35
30021;BME280;16861;52.294;7.760;2023-05-08T08:44:26;100390.16;;;20.20;53.62
30021;BME280;16861;52.294;7.760;2023-05-08T08:46:53;100399.47;;;20.26;53.69
30021;BME280;16861;52.294;7.760;2023-05-08T08:49:27;100399.91;;;20.31;53.37
30021;BME280;16861;52.294;7.760;2023-05-08T08:51:58;100394.00;;;20.37;53.33
30021;BME280;16861;52.294;7.760;2023-05-08T08:54:28;100403.19;;;20.44;53.15
30021;BME280;16861;52.294;7.760;2023-05-08T08:57:00;100403.63;;;20.50;52.87
30021;BME280;16861;52.294;7.760;2023-05-08T08:59:27;100398.69;;;20.55;52.93
30021;BME280;16861;52.294;7.760;2023-05-08T09:02:01;100401.84;;;20.60;53.42
30021;BME280;16861;52.294;7.760;2023-05-08T09:04:31;100401.13;;;20.68;53.25
30021;BME280;16861;52.294;7.760;2023-05-08T09:06:58;100393.41;;;20.75;52.84
30021;BME280;16861;52.294;7.760;2023-05-08T09:09:25;100391.88;;;20.82;52.73
30021;BME280;16861;52.294;7.760;2023-05-08T09:11:54;100387.81;;;20.88;53.34
30021;BME280;16861;52.294;7.760;2023-05-08T09:14:20;100392.75;;;20.92;52.17
30021;BME280;16861;52.294;7.760;2023-05-08T09:16:47;100389.63;;;20.97;52.76
30021;BME280;16861;52.294;7.760;2023-05-08T09:19:14;100384.88;;;21.01;52.88
30021;BME280;16861;52.294;7.760;2023-05-08T09:21:41;100389.66;;;21.07;52.62
30021;BME280;16861;52.294;7.760;2023-05-08T09:24:08;100385.44;;;21.14;52.48
30021;BME280;16861;52.294;7.760;2023-05-08T09:26:38;100391.91;;;21.21;52.91
30021;BME280;16861;52.294;7.760;2023-05-08T09:31:36;100377.09;;;21.37;52.89
30021;BME280;16861;52.294;7.760;2023-05-08T09:34:09;100383.44;;;21.46;52.00
30021;BME280;16861;52.294;7.760;2023-05-08T09:36:36;100383.38;;;21.56;52.44
30021;BME280;16861;52.294;7.760;2023-05-08T09:39:09;100379.16;;;21.63;52.09
30021;BME280;16861;52.294;7.760;2023-05-08T09:41:37;100380.84;;;21.74;51.99
30021;BME280;16861;52.294;7.760;2023-05-08T09:44:05;100377.44;;;21.82;51.67
30021;BME280;16861;52.294;7.760;2023-05-08T09:46:35;100381.94;;;21.91;52.52
30021;BME280;16861;52.294;7.760;2023-05-08T09:49:02;100382.88;;;22.00;51.64
30021;BME280;16861;52.294;7.760;2023-05-08T09:51:30;100386.69;;;22.07;51.93
30021;BME280;16861;52.294;7.760;2023-05-08T09:53:58;100392.00;;;22.17;51.36
30021;BME280;16861;52.294;7.760;2023-05-08T09:56:36;100394.06;;;22.23;51.56
30021;BME280;16861;52.294;7.760;2023-05-08T10:01:47;100392.38;;;22.50;52.00
30021;BME280;16861;52.294;7.760;2023-05-08T10:04:14;100394.03;;;22.61;52.08
30021;BME280;16861;52.294;7.760;2023-05-08T10:06:40;100386.06;;;22.70;51.77
30021;BME280;16861;52.294;7.760;2023-05-08T10:09:14;100381.81;;;22.77;50.90
30021;BME280;16861;52.294;7.760;2023-05-08T10:11:48;100386.41;;;22.85;51.02
30021;BME280;16861;52.294;7.760;2023-05-08T10:14:19;100384.47;;;22.95;50.59
30021;BME280;16861;52.294;7.760;2023-05-08T10:16:47;100388.53;;;22.99;49.99
30021;BME280;16861;52.294;7.760;2023-05-08T10:19:23;100382.88;;;23.02;50.54
30021;BME280;16861;52.294;7.760;2023-05-08T10:21:52;100384.78;;;23.10;50.22
30021;BME280;16861;52.294;7.760;2023-05-08T10:24:40;100391.00;;;23.11;50.26
30021;BME280;16861;52.294;7.760;2023-05-08T10:27:16;100393.75;;;23.19;50.87
30021;BME280;16861;52.294;7.760;2023-05-08T10:29:55;100390.13;;;23.28;49.97
30021;BME280;16861;52.294;7.760;2023-05-08T10:32:23;100387.91;;;23.42;50.82
30021;BME280;16861;52.294;7.760;2023-05-08T10:34:58;100388.50;;;23.54;50.92
30021;BME280;16861;52.294;7.760;2023-05-08T10:37:28;100381.41;;;23.71;51.27
30021;BME280;16861;52.294;7.760;2023-05-08T10:39:56;100373.44;;;23.88;50.85
30021;BME280;16861;52.294;7.760;2023-05-08T10:42:24;100380.75;;;24.04;50.01
30021;BME280;16861;52.294;7.760;2023-05-08T10:44:52;100382.53;;;24.22;49.75
30021;BME280;16861;52.294;7.760;2023-05-08T10:47:29;100379.38;;;24.34;49.95
30021;BME280;16861;52.294;7.760;2023-05-08T10:55:30;100375.78;;;24.77;48.46
30021;BME280;16861;52.294;7.760;2023-05-08T11:03:18;100369.75;;;25.00;48.27
30021;BME280;16861;52.294;7.760;2023-05-08T11:05:58;100366.59;;;25.05;48.09
30021;BME280;16861;52.294;7.760;2023-05-08T11:08:26;100365.91;;;25.11;47.60
30021;BME280;16861;52.294;7.760;2023-05-08T11:13:36;100359.31;;;25.14;47.28
30021;BME280;16861;52.294;7.760;2023-05-08T11:16:03;100359.69;;;25.19;47.62
30021;BME280;16861;52.294;7.760;2023-05-08T11:18:36;100354.97;;;25.21;48.36
30021;BME280;16861;52.294;7.760;2023-05-08T11:21:19;100359.00;;;25.33;47.48
30021;BME280;16861;52.294;7.760;2023-05-08T11:23:56;100352.91;;;25.40;47.18
30021;BME280;16861;52.294;7.760;2023-05-08T11:26:37;100355.44;;;25.49;46.24
30021;BME280;16861;52.294;7.760;2023-05-08T11:29:15;100354.94;;;25.62;46.99
30021;BME280;16861;52.294;7.760;2023-05-08T11:31:49;100357.25;;;25.74;46.15
30021;BME280;16861;52.294;7.760;2023-05-08T11:37:17;100347.25;;;25.99;46.26
30021;BME280;16861;52.294;7.760;2023-05-08T11:39:45;100358.13;;;26.14;46.76
30021;BME280;16861;52.294;7.760;2023-05-08T11:45:06;100352.16;;;26.36;45.89
30021;BME280;16861;52.294;7.760;2023-05-08T11:47:40;100350.72;;;26.48;44.42
30021;BME280;16861;52.294;7.760;2023-05-08T11:50:08;100352.72;;;26.54;44.82
30021;BME280;16861;52.294;7.760;2023-05-08T11:52:36;100356.91;;;26.57;45.24
30021;BME280;16861;52.294;7.760;2023-05-08T11:55:04;100361.09;;;26.60;45.03
30021;BME280;16861;52.294;7.760;2023-05-08T11:57:31;100351.63;;;26.64;45.71
30021;BME280;16861;52.294;7.760;2023-05-08T12:00:06;100348.41;;;26.69;44.78
30021;BME280;16861;52.294;7.760;2023-05-08T12:02:41;100352.84;;;26.85;45.91
30021;BME280;16861;52.294;7.760;2023-05-08T12:05:09;100353.88;;;27.07;46.00
30021;BME280;16861;52.294;7.760;2023-05-08T12:12:52;100343.47;;;27.73;43.24
30021;BME280;16861;52.294;7.760;2023-05-08T12:15:18;100346.09;;;27.81;43.52
30021;BME280;16861;52.294;7.760;2023-05-08T12:17:45;100339.53;;;27.90;43.39
30021;BME280;16861;52.294;7.760;2023-05-08T12:20:14;100343.63;;;28.01;42.97
30021;BME280;16861;52.294;7.760;2023-05-08T12:22:49;100332.38;;;28.19;42.94
30021;BME280;16861;52.294;7.760;2023-05-08T12:25:16;100343.56;;;28.46;43.57
30021;BME280;16861;52.294;7.760;2023-05-08T12:27:44;100339.00;;;28.69;42.60
30021;BME280;16861;52.294;7.760;2023-05-08T12:30:12;100335.41;;;28.83;41.33
30021;BME280;16861;52.294;7.760;2023-05-08T12:32:40;100327.53;;;28.88;41.05
30021;BME280;16861;52.294;7.760;2023-05-08T12:35:08;100330.41;;;28.87;40.50
30021;BME280;16861;52.294;7.760;2023-05-08T12:37:36;100326.59;;;28.81;40.69
30021;BME280;16861;52.294;7.760;2023-05-08T12:40:03;100337.56;;;28.73;40.40
30021;BME280;16861;52.294;7.760;2023-05-08T12:42:49;100336.63;;;28.59;40.82
30021;BME280;16861;52.294;7.760;2023-05-08T12:45:24;100338.03;;;28.55;40.23
30021;BME280;16861;52.294;7.760;2023-05-08T12:47:56;100330.94;;;28.54;42.06
30021;BME280;16861;52.294;7.760;2023-05-08T12:50:23;100333.81;;;28.52;41.60
30021;BME280;16861;52.294;7.760;2023-05-08T12:52:53;100337.75;;;28.49;41.06
30021;BME280;16861;52.294;7.760;2023-05-08T12:55:27;100329.38;;;28.44;39.93
30021;BME280;16861;52.294;7.760;2023-05-08T12:58:08;100328.06;;;28.40;40.67
30021;BME280;16861;52.294;7.760;2023-05-08T13:00:45;100334.09;;;28.35;40.69
30021;BME280;16861;52.294;7.760;2023-05-08T13:03:13;100322.16;;;28.30;40.69
30021;BME280;16861;52.294;7.760;2023-05-08T13:05:47;100319.16;;;28.25;41.04
30021;BME280;16861;52.294;7.760;2023-05-08T13:08:13;100317.84;;;28.20;41.09
30021;BME280;16861;52.294;7.760;2023-05-08T13:10:44;100327.38;;;28.16;41.04
30021;BME280;16861;52.294;7.760;2023-05-08T13:13:16;100321.13;;;28.16;41.19
30021;BME280;16861;52.294;7.760;2023-05-08T13:15:44;100320.38;;;28.22;42.10
30021;BME280;16861;52.294;7.760;2023-05-08T13:18:11;100323.06;;;28.37;42.00
30021;BME280;16861;52.294;7.760;2023-05-08T13:20:38;100321.00;;;28.61;41.86
30021;BME280;16861;52.294;7.760;2023-05-08T13:23:06;100320.63;;;28.86;41.70
30021;BME280;16861;52.294;7.760;2023-05-08T13:25:34;100316.69;;;29.10;40.41
30021;BME280;16861;52.294;7.760;2023-05-08T13:28:02;100322.25;;;29.31;40.76
30021;BME280;16861;52.294;7.760;2023-05-08T13:30:29;100315.47;;;29.48;40.08
30021;BME280;16861;52.294;7.760;2023-05-08T13:32:55;100312.06;;;29.68;40.77
30021;BME280;16861;52.294;7.760;2023-05-08T13:35:23;100309.47;;;29.95;40.00
30021;BME280;16861;52.294;7.760;2023-05-08T13:37:50;100306.88;;;30.22;39.67
30021;BME280;16861;52.294;7.760;2023-05-08T13:40:17;100307.78;;;30.43;39.47
30021;BME280;16861;52.294;7.760;2023-05-08T13:42:43;100307.59;;;30.65;39.36
30021;BME280;16861;52.294;7.760;2023-05-08T13:45:10;100307.84;;;30.90;39.30
30021;BME280;16861;52.294;7.760;2023-05-08T13:47:41;100298.00;;;31.16;37.65
30021;BME280;16861;52.294;7.760;2023-05-08T13:50:09;100288.56;;;31.39;38.04
30021;BME280;16861;52.294;7.760;2023-05-08T13:52:37;100291.84;;;31.62;38.20
30021;BME280;16861;52.294;7.760;2023-05-08T13:55:11;100284.69;;;31.74;36.89
30021;BME280;16861;52.294;7.760;2023-05-08T13:57:39;100288.19;;;31.81;37.03
30021;BME280;16861;52.294;7.760;2023-05-08T14:00:08;100293.47;;;31.76;35.97
30021;BME280;16861;52.294;7.760;2023-05-08T14:02:35;100287.84;;;31.64;35.29
30021;BME280;16861;52.294;7.760;2023-05-08T14:05:03;100289.81;;;31.43;35.10
30021;BME280;16861;52.294;7.760;2023-05-08T14:07:30;100282.72;;;31.15;34.79